sensor_id;sensor_type;location;lat;lon;timestamp;pressure;altitude;pressure_sealevel;temperature;humidity
37694;BME280;23531;50.122;8.644;2022-12-07T00:01:28;100669.34;;;6.00;72.69
37694;BME280;23531;50.122;8.644;2022-12-07T00:03:31;100662.31;;;6.07;72.87
37694;BME280;23531;50.122;8.644;2022-12-07T00:05:32;100668.13;;;6.10;72.67
37694;BME280;23531;50.122;8.644;2022-12-07T00:07:34;100669.03;;;6.26;72.67
37694;BME280;23531;50.122;8.644;2022-12-07T00:09:36;100661.94;;;6.18;71.80
37694;BME280;23531;50.122;8.644;2022-12-07T00:11:38;100667.78;;;6.13;71.85
37694;BME280;23531;50.122;8.644;2022-12-07T00:13:40;100662.16;;;6.00;72.21
37694;BME280;23531;50.122;8.644;2022-12-07T00:15:42;100646.75;;;6.18;72.18
37694;BME280;23531;50.122;8.644;2022-12-07T00:17:43;100660.47;;;6.07;71.52
37694;BME280;23531;50.122;8.644;2022-12-07T00:19:46;100654.69;;;5.88;72.47
37694;BME280;23531;50.122;8.644;2022-12-07T00:21:47;100653.16;;;6.01;72.41
37694;BME280;23531;50.122;8.644;2022-12-07T00:23:49;100651.19;;;5.95;72.16
37694;BME280;23531;50.122;8.644;2022-12-07T00:25:50;100651.06;;;5.80;72.68
37694;BME280;23531;50.122;8.644;2022-12-07T00:27:52;100639.69;;;5.95;72.42
37694;BME280;23531;50.122;8.644;2022-12-07T00:29:55;100648.94;;;5.68;72.62
37694;BME280;23531;50.122;8.644;2022-12-07T00:31:56;100641.06;;;5.82;73.21
37694;BME280;23531;50.122;8.644;2022-12-07T00:33:58;100633.13;;;6.05;73.06
37694;BME280;23531;50.122;8.644;2022-12-07T00:36:01;100638.97;;;6.09;73.04
37694;BME280;23531;50.122;8.644;2022-12-07T00:38:02;100634.56;;;6.16;72.59
37694;BME280;23531;50.122;8.644;2022-12-07T00:40:04;100624.81;;;6.00;72.18
37694;BME280;23531;50.122;8.644;2022-12-07T00:42:06;100620.59;;;5.75;72.69
37694;BME280;23531;50.122;8.644;2022-12-07T00:44:07;100616.38;;;5.80;73.83
37694;BME280;23531;50.122;8.644;2022-12-07T00:46:09;100625.56;;;5.78;73.21
37694;BME280;23531;50.122;8.644;2022-12-07T00:48:10;100630.19;;;5.92;73.84
37694;BME280;23531;50.122;8.644;2022-12-07T00:50:12;100631.19;;;5.91;72.96
37694;BME280;23531;50.122;8.644;2022-12-07T00:52:14;100625.69;;;5.84;73.10
37694;BME280;23531;50.122;8.644;2022-12-07T00:54:15;100630.94;;;5.70;73.45
37694;BME280;23531;50.122;8.644;2022-12-07T00:56:18;100622.22;;;5.76;73.97
37694;BME280;23531;50.122;8.644;2022-12-07T00:58:19;100623.72;;;5.78;74.04
37694;BME280;23531;50.122;8.644;2022-12-07T01:00:21;100624.22;;;5.82;73.96
37694;BME280;23531;50.122;8.644;2022-12-07T01:02:22;100621.81;;;5.87;73.81
37694;BME280;23531;50.122;8.644;2022-12-07T01:04:24;100627.94;;;5.73;73.86
37694;BME280;23531;50.122;8.644;2022-12-07T01:06:25;100635.59;;;5.68;74.16
37694;BME280;23531;50.122;8.644;2022-12-07T01:08:28;100639.28;;;5.67;74.47
37694;BME280;23531;50.122;8.644;2022-12-07T01:10:30;100638.94;;;5.70;74.55
37694;BME280;23531;50.122;8.644;2022-12-07T01:12:31;100622.03;;;5.86;74.67
37694;BME280;23531;50.122;8.644;2022-12-07T01:14:33;100619.84;;;5.97;74.24
37694;BME280;23531;50.122;8.644;2022-12-07T01:16:34;100618.50;;;5.93;73.65
37694;BME280;23531;50.122;8.644;2022-12-07T01:18:36;100618.38;;;5.87;74.34
37694;BME280;23531;50.122;8.644;2022-12-07T01:20:38;100613.84;;;5.95;74.13
37694;BME280;23531;50.122;8.644;2022-12-07T01:22:40;100611.00;;;5.97;74.05
37694;BME280;23531;50.122;8.644;2022-12-07T01:24:43;100603.88;;;5.81;74.13
37694;BME280;23531;50.122;8.644;2022-12-07T01:26:48;100605.16;;;5.93;74.54
37694;BME280;23531;50.122;8.644;2022-12-07T01:28:49;100609.91;;;5.75;73.86
37694;BME280;23531;50.122;8.644;2022-12-07T01:30:57;100613.53;;;5.82;74.79
37694;BME280;23531;50.122;8.644;2022-12-07T01:32:59;100612.38;;;5.84;74.58
37694;BME280;23531;50.122;8.644;2022-12-07T01:35:00;100615.50;;;5.96;74.25
37694;BME280;23531;50.122;8.644;2022-12-07T01:37:02;100612.47;;;5.99;74.52
37694;BME280;23531;50.122;8.644;2022-12-07T01:39:04;100617.53;;;5.86;73.94
37694;BME280;23531;50.122;8.644;2022-12-07T01:41:07;100620.97;;;5.64;74.59
37694;BME280;23531;50.122;8.644;2022-12-07T01:43:13;100612.97;;;5.64;75.08
37694;BME280;23531;50.122;8.644;2022-12-07T01:47:44;100624.53;;;5.79;75.23
37694;BME280;23531;50.122;8.644;2022-12-07T01:49:48;100621.03;;;5.78;74.84
37694;BME280;23531;50.122;8.644;2022-12-07T01:51:50;100628.59;;;5.75;74.87
37694;BME280;23531;50.122;8.644;2022-12-07T01:53:53;100633.72;;;5.76;74.88
37694;BME280;23531;50.122;8.644;2022-12-07T01:55:55;100621.72;;;5.80;75.36
37694;BME280;23531;50.122;8.644;2022-12-07T01:57:59;100624.72;;;5.77;75.06
37694;BME280;23531;50.122;8.644;2022-12-07T02:00:00;100619.69;;;5.91;75.31
37694;BME280;23531;50.122;8.644;2022-12-07T02:02:03;100618.81;;;5.98;75.03
37694;BME280;23531;50.122;8.644;2022-12-07T02:04:05;100609.44;;;6.02;74.71
37694;BME280;23531;50.122;8.644;2022-12-07T02:06:07;100602.75;;;6.06;74.25
37694;BME280;23531;50.122;8.644;2022-12-07T02:08:09;100592.53;;;5.79;74.48
37694;BME280;23531;50.122;8.644;2022-12-07T02:10:12;100596.03;;;5.79;74.58
37694;BME280;23531;50.122;8.644;2022-12-07T02:12:14;100608.34;;;5.50;75.02
37694;BME280;23531;50.122;8.644;2022-12-07T02:14:17;100606.00;;;5.46;75.97
37694;BME280;23531;50.122;8.644;2022-12-07T02:16:22;100603.09;;;5.25;76.30
37694;BME280;23531;50.122;8.644;2022-12-07T02:18:31;100603.56;;;5.37;76.80
37694;BME280;23531;50.122;8.644;2022-12-07T02:20:37;100599.91;;;5.69;76.92
37694;BME280;23531;50.122;8.644;2022-12-07T02:24:59;100588.06;;;5.71;75.77
37694;BME280;23531;50.122;8.644;2022-12-07T02:27:07;100592.88;;;5.37;76.79
37694;BME280;23531;50.122;8.644;2022-12-07T02:29:21;100593.38;;;5.40;77.48
37694;BME280;23531;50.122;8.644;2022-12-07T02:31:23;100593.75;;;5.68;77.38
37694;BME280;23531;50.122;8.644;2022-12-07T02:33:28;100588.75;;;5.73;77.07
37694;BME280;23531;50.122;8.644;2022-12-07T02:35:32;100574.69;;;5.79;77.01
37694;BME280;23531;50.122;8.644;2022-12-07T02:37:36;100583.00;;;5.84;76.24
37694;BME280;23531;50.122;8.644;2022-12-07T02:39:41;100577.19;;;5.81;76.92
37694;BME280;23531;50.122;8.644;2022-12-07T02:41:46;100583.41;;;5.65;75.49
37694;BME280;23531;50.122;8.644;2022-12-07T02:43:49;100580.59;;;5.67;76.68
37694;BME280;23531;50.122;8.644;2022-12-07T02:45:53;100581.56;;;5.74;76.83
37694;BME280;23531;50.122;8.644;2022-12-07T02:47:56;100580.03;;;5.79;76.26
37694;BME280;23531;50.122;8.644;2022-12-07T02:50:00;100576.28;;;5.58;75.78
37694;BME280;23531;50.122;8.644;2022-12-07T02:52:03;100576.88;;;5.37;76.70
37694;BME280;23531;50.122;8.644;2022-12-07T02:54:07;100582.72;;;5.32;77.11
37694;BME280;23531;50.122;8.644;2022-12-07T02:56:11;100578.03;;;5.42;77.48
37694;BME280;23531;50.122;8.644;2022-12-07T02:58:19;100581.47;;;5.59;77.25
37694;BME280;23531;50.122;8.644;2022-12-07T03:00:21;100582.81;;;5.55;76.90
37694;BME280;23531;50.122;8.644;2022-12-07T03:02:24;100576.63;;;5.55;77.00
37694;BME280;23531;50.122;8.644;2022-12-07T03:04:32;100590.34;;;5.43;77.18
37694;BME280;23531;50.122;8.644;2022-12-07T03:06:39;100583.22;;;5.36;77.05
37694;BME280;23531;50.122;8.644;2022-12-07T03:08:44;100574.81;;;5.55;77.73
37694;BME280;23531;50.122;8.644;2022-12-07T03:10:50;100579.50;;;5.84;77.18
37694;BME280;23531;50.122;8.644;2022-12-07T03:12:57;100576.66;;;5.94;76.66
37694;BME280;23531;50.122;8.644;2022-12-07T03:15:03;100569.06;;;5.74;75.93
37694;BME280;23531;50.122;8.644;2022-12-07T03:17:07;100579.28;;;5.63;76.36
37694;BME280;23531;50.122;8.644;2022-12-07T03:19:13;100572.94;;;5.64;77.01
37694;BME280;23531;50.122;8.644;2022-12-07T03:21:19;100571.50;;;5.84;76.81
37694;BME280;23531;50.122;8.644;2022-12-07T03:23:22;100571.84;;;5.81;76.52
37694;BME280;23531;50.122;8.644;2022-12-07T03:25:24;100571.19;;;5.79;76.21
37694;BME280;23531;50.122;8.644;2022-12-07T03:27:26;100567.16;;;5.52;75.86
37694;BME280;23531;50.122;8.644;2022-12-07T03:29:31;100569.19;;;5.50;76.85
37694;BME280;23531;50.122;8.644;2022-12-07T03:31:35;100567.25;;;5.67;76.97
37694;BME280;23531;50.122;8.644;2022-12-07T03:33:39;100566.63;;;5.88;76.64
37694;BME280;23531;50.122;8.644;2022-12-07T03:35:45;100557.31;;;5.83;76.54
37694;BME280;23531;50.122;8.644;2022-12-07T03:37:49;100561.34;;;5.48;75.88
37694;BME280;23531;50.122;8.644;2022-12-07T03:39:54;100555.34;;;5.46;76.95
37694;BME280;23531;50.122;8.644;2022-12-07T03:41:58;100553.50;;;5.47;76.85
37694;BME280;23531;50.122;8.644;2022-12-07T03:44:01;100551.78;;;5.62;76.74
37694;BME280;23531;50.122;8.644;2022-12-07T03:46:04;100553.00;;;5.52;76.64
37694;BME280;23531;50.122;8.644;2022-12-07T03:48:13;100559.06;;;5.37;76.82
37694;BME280;23531;50.122;8.644;2022-12-07T03:50:21;100562.56;;;5.38;77.77
37694;BME280;23531;50.122;8.644;2022-12-07T03:52:28;100563.00;;;5.50;77.39
37694;BME280;23531;50.122;8.644;2022-12-07T03:54:32;100556.97;;;5.56;77.37
37694;BME280;23531;50.122;8.644;2022-12-07T03:56:35;100550.34;;;5.52;77.21
37694;BME280;23531;50.122;8.644;2022-12-07T03:58:37;100549.97;;;5.55;76.91
37694;BME280;23531;50.122;8.644;2022-12-07T04:00:40;100544.03;;;5.75;77.26
37694;BME280;23531;50.122;8.644;2022-12-07T04:02:42;100540.75;;;5.65;77.18
37694;BME280;23531;50.122;8.644;2022-12-07T04:04:43;100542.00;;;5.46;77.15
37694;BME280;23531;50.122;8.644;2022-12-07T04:06:45;100543.78;;;5.54;77.12
37694;BME280;23531;50.122;8.644;2022-12-07T04:08:47;100537.06;;;5.35;77.19
37694;BME280;23531;50.122;8.644;2022-12-07T04:10:49;100547.84;;;5.42;77.62
37694;BME280;23531;50.122;8.644;2022-12-07T04:12:50;100539.44;;;5.61;77.73
37694;BME280;23531;50.122;8.644;2022-12-07T04:14:51;100547.28;;;5.55;77.64
37694;BME280;23531;50.122;8.644;2022-12-07T04:16:54;100541.66;;;5.50;77.21
37694;BME280;23531;50.122;8.644;2022-12-07T04:18:56;100547.28;;;5.55;77.76
37694;BME280;23531;50.122;8.644;2022-12-07T04:20:58;100552.69;;;5.46;77.36
37694;BME280;23531;50.122;8.644;2022-12-07T04:23:01;100543.34;;;5.42;78.03
37694;BME280;23531;50.122;8.644;2022-12-07T04:25:05;100540.69;;;5.42;77.79
37694;BME280;23531;50.122;8.644;2022-12-07T04:27:06;100549.50;;;5.51;78.26
37694;BME280;23531;50.122;8.644;2022-12-07T04:29:07;100546.56;;;5.38;77.81
37694;BME280;23531;50.122;8.644;2022-12-07T04:31:09;100544.38;;;5.41;77.92
37694;BME280;23531;50.122;8.644;2022-12-07T04:33:11;100550.22;;;5.37;78.27
37694;BME280;23531;50.122;8.644;2022-12-07T04:35:12;100539.22;;;5.71;78.47
37694;BME280;23531;50.122;8.644;2022-12-07T04:37:13;100551.00;;;5.76;77.54
37694;BME280;23531;50.122;8.644;2022-12-07T04:39:17;100547.50;;;5.84;77.94
37694;BME280;23531;50.122;8.644;2022-12-07T04:41:21;100554.88;;;5.74;77.24
37694;BME280;23531;50.122;8.644;2022-12-07T04:43:27;100545.88;;;5.75;77.37
37694;BME280;23531;50.122;8.644;2022-12-07T04:45:28;100553.75;;;5.99;77.52
37694;BME280;23531;50.122;8.644;2022-12-07T04:47:30;100552.03;;;5.75;76.70
37694;BME280;23531;50.122;8.644;2022-12-07T04:49:31;100547.50;;;5.84;77.38
37694;BME280;23531;50.122;8.644;2022-12-07T04:51:33;100548.16;;;5.78;76.69
37694;BME280;23531;50.122;8.644;2022-12-07T04:53:34;100545.03;;;5.74;76.80
37694;BME280;23531;50.122;8.644;2022-12-07T04:55:35;100552.31;;;5.89;77.17
37694;BME280;23531;50.122;8.644;2022-12-07T04:57:38;100547.81;;;5.89;76.82
37694;BME280;23531;50.122;8.644;2022-12-07T04:59:39;100546.28;;;5.95;76.64
37694;BME280;23531;50.122;8.644;2022-12-07T05:01:44;100539.56;;;5.99;77.05
37694;BME280;23531;50.122;8.644;2022-12-07T05:03:47;100543.91;;;6.00;76.11
37694;BME280;23531;50.122;8.644;2022-12-07T05:05:49;100538.03;;;5.73;76.51
37694;BME280;23531;50.122;8.644;2022-12-07T05:07:50;100540.66;;;5.81;77.03
37694;BME280;23531;50.122;8.644;2022-12-07T05:09:52;100537.81;;;5.83;76.62
37694;BME280;23531;50.122;8.644;2022-12-07T05:11:53;100537.66;;;5.84;76.63
37694;BME280;23531;50.122;8.644;2022-12-07T05:13:56;100540.94;;;5.95;76.95
37694;BME280;23531;50.122;8.644;2022-12-07T05:15:57;100538.28;;;5.95;76.39
37694;BME280;23531;50.122;8.644;2022-12-07T05:17:59;100543.72;;;6.01;76.86
37694;BME280;23531;50.122;8.644;2022-12-07T05:20:00;100545.63;;;5.93;76.69
37694;BME280;23531;50.122;8.644;2022-12-07T05:22:01;100528.13;;;5.90;76.79
37694;BME280;23531;50.122;8.644;2022-12-07T05:24:03;100541.88;;;6.02;76.59
37694;BME280;23531;50.122;8.644;2022-12-07T05:26:05;100545.97;;;6.12;76.67
37694;BME280;23531;50.122;8.644;2022-12-07T05:28:06;100540.34;;;5.76;75.78
37694;BME280;23531;50.122;8.644;2022-12-07T05:30:09;100539.91;;;5.65;76.60
37694;BME280;23531;50.122;8.644;2022-12-07T05:32:11;100545.50;;;5.78;76.71
37694;BME280;23531;50.122;8.644;2022-12-07T05:34:12;100533.88;;;5.71;76.82
37694;BME280;23531;50.122;8.644;2022-12-07T05:36:14;100537.28;;;5.96;77.09
37694;BME280;23531;50.122;8.644;2022-12-07T05:38:15;100543.31;;;6.12;76.79
37694;BME280;23531;50.122;8.644;2022-12-07T05:40:16;100542.53;;;6.04;76.49
37694;BME280;23531;50.122;8.644;2022-12-07T05:42:18;100537.88;;;6.06;76.34
37694;BME280;23531;50.122;8.644;2022-12-07T05:44:19;100541.59;;;5.97;76.50
37694;BME280;23531;50.122;8.644;2022-12-07T05:46:21;100544.44;;;5.95;76.15
37694;BME280;23531;50.122;8.644;2022-12-07T05:48:23;100541.63;;;6.11;76.73
37694;BME280;23531;50.122;8.644;2022-12-07T05:50:25;100544.81;;;5.84;76.16
37694;BME280;23531;50.122;8.644;2022-12-07T05:52:27;100539.66;;;5.82;76.54
37694;BME280;23531;50.122;8.644;2022-12-07T05:54:29;100542.06;;;6.00;76.80
37694;BME280;23531;50.122;8.644;2022-12-07T05:56:30;100543.06;;;5.99;76.75
37694;BME280;23531;50.122;8.644;2022-12-07T05:58:32;100539.03;;;6.03;76.41
37694;BME280;23531;50.122;8.644;2022-12-07T06:00:50;100540.78;;;5.96;76.61
37694;BME280;23531;50.122;8.644;2022-12-07T06:02:53;100536.06;;;5.67;76.88
37694;BME280;23531;50.122;8.644;2022-12-07T06:04:54;100534.13;;;5.61;77.37
37694;BME280;23531;50.122;8.644;2022-12-07T06:06:56;100537.66;;;5.76;77.64
37694;BME280;23531;50.122;8.644;2022-12-07T06:08:57;100537.38;;;6.02;77.41
37694;BME280;23531;50.122;8.644;2022-12-07T06:10:58;100533.38;;;5.98;77.05
37694;BME280;23531;50.122;8.644;2022-12-07T06:13:14;100539.56;;;5.99;77.17
37694;BME280;23531;50.122;8.644;2022-12-07T06:15:15;100534.22;;;5.99;76.81
37694;BME280;23531;50.122;8.644;2022-12-07T06:17:16;100528.13;;;5.90;76.95
37694;BME280;23531;50.122;8.644;2022-12-07T06:19:19;100536.16;;;5.82;76.85
37694;BME280;23531;50.122;8.644;2022-12-07T06:21:20;100531.00;;;5.80;77.45
37694;BME280;23531;50.122;8.644;2022-12-07T06:23:22;100533.16;;;5.77;77.41
37694;BME280;23531;50.122;8.644;2022-12-07T06:25:23;100531.16;;;5.79;77.49
37694;BME280;23531;50.122;8.644;2022-12-07T06:27:24;100526.53;;;5.73;77.50
37694;BME280;23531;50.122;8.644;2022-12-07T06:29:26;100528.22;;;5.66;77.51
37694;BME280;23531;50.122;8.644;2022-12-07T06:31:27;100536.59;;;5.63;77.81
37694;BME280;23531;50.122;8.644;2022-12-07T06:33:28;100534.72;;;5.71;78.03
37694;BME280;23531;50.122;8.644;2022-12-07T06:35:33;100532.66;;;5.81;77.76
37694;BME280;23531;50.122;8.644;2022-12-07T06:37:34;100539.09;;;5.87;77.76
37694;BME280;23531;50.122;8.644;2022-12-07T06:39:35;100534.28;;;6.13;78.02
37694;BME280;23531;50.122;8.644;2022-12-07T06:41:39;100528.28;;;6.11;77.31
37694;BME280;23531;50.122;8.644;2022-12-07T06:43:40;100526.69;;;6.02;77.42
37694;BME280;23531;50.122;8.644;2022-12-07T06:45:42;100523.75;;;5.97;77.43
37694;BME280;23531;50.122;8.644;2022-12-07T06:47:43;100530.50;;;6.08;77.46
37694;BME280;23531;50.122;8.644;2022-12-07T06:49:44;100537.72;;;6.22;77.78
37694;BME280;23531;50.122;8.644;2022-12-07T06:51:47;100539.97;;;6.10;76.82
37694;BME280;23531;50.122;8.644;2022-12-07T06:53:48;100541.00;;;6.09;77.30
37694;BME280;23531;50.122;8.644;2022-12-07T06:55:50;100538.81;;;6.13;77.36
37694;BME280;23531;50.122;8.644;2022-12-07T06:57:51;100547.47;;;6.15;76.94
37694;BME280;23531;50.122;8.644;2022-12-07T06:59:53;100548.72;;;6.04;76.89
37694;BME280;23531;50.122;8.644;2022-12-07T07:01:54;100549.06;;;6.01;77.29
37694;BME280;23531;50.122;8.644;2022-12-07T07:03:55;100551.13;;;5.91;77.52
37694;BME280;23531;50.122;8.644;2022-12-07T07:05:57;100548.50;;;5.83;77.68
37694;BME280;23531;50.122;8.644;2022-12-07T07:07:59;100546.56;;;6.00;77.73
37694;BME280;23531;50.122;8.644;2022-12-07T07:10:01;100550.47;;;6.12;77.79
37694;BME280;23531;50.122;8.644;2022-12-07T07:12:02;100554.56;;;6.23;77.72
37694;BME280;23531;50.122;8.644;2022-12-07T07:14:03;100551.03;;;6.30;77.37
37694;BME280;23531;50.122;8.644;2022-12-07T07:16:05;100558.97;;;6.38;77.20
37694;BME280;23531;50.122;8.644;2022-12-07T07:18:07;100557.47;;;6.36;76.85
37694;BME280;23531;50.122;8.644;2022-12-07T07:20:09;100561.34;;;6.33;76.31
37694;BME280;23531;50.122;8.644;2022-12-07T07:22:10;100570.31;;;6.17;76.96
37694;BME280;23531;50.122;8.644;2022-12-07T07:24:13;100562.13;;;6.19;77.13
37694;BME280;23531;50.122;8.644;2022-12-07T07:26:14;100566.91;;;6.24;77.16
37694;BME280;23531;50.122;8.644;2022-12-07T07:28:15;100563.72;;;6.28;76.70
37694;BME280;23531;50.122;8.644;2022-12-07T07:30:17;100567.28;;;6.21;76.69
37694;BME280;23531;50.122;8.644;2022-12-07T07:32:18;100568.88;;;6.07;76.63
37694;BME280;23531;50.122;8.644;2022-12-07T07:34:21;100567.91;;;6.00;77.43
37694;BME280;23531;50.122;8.644;2022-12-07T07:36:23;100552.63;;;6.16;77.36
37694;BME280;23531;50.122;8.644;2022-12-07T07:38:24;100563.97;;;6.18;77.14
37694;BME280;23531;50.122;8.644;2022-12-07T07:40:27;100558.25;;;6.22;77.08
37694;BME280;23531;50.122;8.644;2022-12-07T07:42:28;100566.63;;;6.18;77.26
37694;BME280;23531;50.122;8.644;2022-12-07T07:44:30;100558.03;;;6.08;77.22
37694;BME280;23531;50.122;8.644;2022-12-07T07:46:31;100552.44;;;5.95;76.76
37694;BME280;23531;50.122;8.644;2022-12-07T07:48:33;100559.56;;;6.03;77.28
37694;BME280;23531;50.122;8.644;2022-12-07T07:50:34;100560.41;;;6.03;77.48
37694;BME280;23531;50.122;8.644;2022-12-07T07:52:36;100564.38;;;6.07;77.31
37694;BME280;23531;50.122;8.644;2022-12-07T07:54:37;100565.66;;;6.11;77.28
37694;BME280;23531;50.122;8.644;2022-12-07T07:56:40;100563.97;;;6.18;77.12
37694;BME280;23531;50.122;8.644;2022-12-07T07:58:41;100573.25;;;6.23;77.19
37694;BME280;23531;50.122;8.644;2022-12-07T08:00:43;100566.75;;;6.25;76.97
37694;BME280;23531;50.122;8.644;2022-12-07T08:02:44;100562.75;;;6.21;76.78
37694;BME280;23531;50.122;8.644;2022-12-07T08:04:46;100559.69;;;6.09;76.95
37694;BME280;23531;50.122;8.644;2022-12-07T08:06:47;100564.72;;;6.04;77.45
37694;BME280;23531;50.122;8.644;2022-12-07T08:08:48;100562.75;;;5.98;77.35
37694;BME280;23531;50.122;8.644;2022-12-07T08:10:50;100563.13;;;5.95;77.32
37694;BME280;23531;50.122;8.644;2022-12-07T08:12:52;100566.47;;;5.97;77.67
37694;BME280;23531;50.122;8.644;2022-12-07T08:15:13;100560.63;;;5.94;78.02
37694;BME280;23531;50.122;8.644;2022-12-07T08:17:14;100562.38;;;6.09;78.10
37694;BME280;23531;50.122;8.644;2022-12-07T08:19:16;100561.31;;;6.18;78.05
37694;BME280;23531;50.122;8.644;2022-12-07T08:21:17;100566.75;;;6.25;77.89
37694;BME280;23531;50.122;8.644;2022-12-07T08:23:19;100569.56;;;6.32;77.35
37694;BME280;23531;50.122;8.644;2022-12-07T08:25:21;100578.16;;;6.42;77.60
37694;BME280;23531;50.122;8.644;2022-12-07T08:27:23;100575.22;;;6.51;77.54
37694;BME280;23531;50.122;8.644;2022-12-07T08:29:28;100564.63;;;6.58;76.83
37694;BME280;23531;50.122;8.644;2022-12-07T08:31:29;100574.97;;;6.61;75.64
37694;BME280;23531;50.122;8.644;2022-12-07T08:33:31;100573.13;;;6.62;76.15
37694;BME280;23531;50.122;8.644;2022-12-07T08:35:32;100573.41;;;6.67;75.60
37694;BME280;23531;50.122;8.644;2022-12-07T08:37:34;100567.59;;;6.63;75.35
37694;BME280;23531;50.122;8.644;2022-12-07T08:39:35;100565.13;;;6.62;75.54
37694;BME280;23531;50.122;8.644;2022-12-07T08:41:36;100568.25;;;6.65;75.75
37694;BME280;23531;50.122;8.644;2022-12-07T08:43:38;100568.88;;;6.67;75.59
37694;BME280;23531;50.122;8.644;2022-12-07T08:45:41;100572.78;;;6.65;75.09
37694;BME280;23531;50.122;8.644;2022-12-07T08:47:43;100569.16;;;6.57;75.06
37694;BME280;23531;50.122;8.644;2022-12-07T08:49:47;100570.22;;;6.48;75.03
37694;BME280;23531;50.122;8.644;2022-12-07T08:51:49;100578.25;;;6.48;74.69
37694;BME280;23531;50.122;8.644;2022-12-07T08:53:51;100582.75;;;6.48;74.95
37694;BME280;23531;50.122;8.644;2022-12-07T08:55:54;100582.94;;;6.46;75.17
37694;BME280;23531;50.122;8.644;2022-12-07T08:57:57;100576.59;;;6.47;75.20
37694;BME280;23531;50.122;8.644;2022-12-07T08:59:58;100581.75;;;6.49;75.37
37694;BME280;23531;50.122;8.644;2022-12-07T09:02:01;100584.59;;;6.47;75.21
37694;BME280;23531;50.122;8.644;2022-12-07T09:04:02;100589.41;;;6.52;74.83
37694;BME280;23531;50.122;8.644;2022-12-07T09:06:04;100589.09;;;6.47;75.04
37694;BME280;23531;50.122;8.644;2022-12-07T09:08:05;100583.75;;;6.47;74.93
37694;BME280;23531;50.122;8.644;2022-12-07T09:10:07;100583.75;;;6.47;74.92
37694;BME280;23531;50.122;8.644;2022-12-07T09:12:09;100581.41;;;6.52;75.23
37694;BME280;23531;50.122;8.644;2022-12-07T09:14:10;100578.28;;;6.63;75.09
37694;BME280;23531;50.122;8.644;2022-12-07T09:16:12;100572.56;;;6.66;74.73
37694;BME280;23531;50.122;8.644;2022-12-07T09:18:15;100583.38;;;6.73;75.18
37694;BME280;23531;50.122;8.644;2022-12-07T09:20:16;100578.47;;;6.62;74.45
37694;BME280;23531;50.122;8.644;2022-12-07T09:22:17;100582.91;;;6.69;74.65
37694;BME280;23531;50.122;8.644;2022-12-07T09:24:19;100579.41;;;6.69;75.04
37694;BME280;23531;50.122;8.644;2022-12-07T09:26:20;100577.25;;;6.49;74.05
37694;BME280;23531;50.122;8.644;2022-12-07T09:28:22;100593.75;;;6.53;74.70
37694;BME280;23531;50.122;8.644;2022-12-07T09:30:24;100592.00;;;6.60;74.25
37694;BME280;23531;50.122;8.644;2022-12-07T09:32:25;100597.66;;;6.65;75.03
37694;BME280;23531;50.122;8.644;2022-12-07T09:34:29;100597.00;;;6.78;74.49
37694;BME280;23531;50.122;8.644;2022-12-07T09:36:31;100592.50;;;6.78;74.59
37694;BME280;23531;50.122;8.644;2022-12-07T09:38:32;100590.47;;;6.66;74.17
37694;BME280;23531;50.122;8.644;2022-12-07T09:40:34;100591.56;;;6.71;74.34
37694;BME280;23531;50.122;8.644;2022-12-07T09:42:36;100588.72;;;6.73;74.32
37694;BME280;23531;50.122;8.644;2022-12-07T09:44:39;100592.31;;;6.65;74.07
37694;BME280;23531;50.122;8.644;2022-12-07T09:46:41;100590.34;;;6.59;74.04
37694;BME280;23531;50.122;8.644;2022-12-07T09:48:44;100590.00;;;6.62;74.33
37694;BME280;23531;50.122;8.644;2022-12-07T09:50:47;100592.41;;;6.72;73.94
37694;BME280;23531;50.122;8.644;2022-12-07T09:52:49;100587.16;;;6.64;73.42
37694;BME280;23531;50.122;8.644;2022-12-07T09:54:51;100586.59;;;6.68;73.28
37694;BME280;23531;50.122;8.644;2022-12-07T09:56:54;100584.91;;;6.67;73.35
37694;BME280;23531;50.122;8.644;2022-12-07T09:58:58;100580.22;;;6.69;73.63
37694;BME280;23531;50.122;8.644;2022-12-07T10:01:01;100569.53;;;6.69;73.37
37694;BME280;23531;50.122;8.644;2022-12-07T10:03:07;100572.22;;;6.69;73.37
37694;BME280;23531;50.122;8.644;2022-12-07T10:05:12;100567.34;;;6.73;73.66
37694;BME280;23531;50.122;8.644;2022-12-07T10:07:15;100569.84;;;6.74;72.98
37694;BME280;23531;50.122;8.644;2022-12-07T10:09:17;100575.53;;;6.71;73.30
37694;BME280;23531;50.122;8.644;2022-12-07T10:11:19;100568.53;;;6.70;73.95
37694;BME280;23531;50.122;8.644;2022-12-07T10:13:21;100571.69;;;6.74;73.41
37694;BME280;23531;50.122;8.644;2022-12-07T10:15:23;100573.44;;;6.81;73.79
37694;BME280;23531;50.122;8.644;2022-12-07T10:17:27;100571.16;;;6.93;73.63
37694;BME280;23531;50.122;8.644;2022-12-07T10:19:30;100567.84;;;7.06;73.69
37694;BME280;23531;50.122;8.644;2022-12-07T10:21:32;100562.69;;;7.19;72.34
37694;BME280;23531;50.122;8.644;2022-12-07T10:23:34;100558.63;;;7.23;72.97
37694;BME280;23531;50.122;8.644;2022-12-07T10:25:36;100562.31;;;7.37;72.00
37694;BME280;23531;50.122;8.644;2022-12-07T10:27:39;100549.88;;;7.44;71.82
37694;BME280;23531;50.122;8.644;2022-12-07T10:29:40;100554.91;;;7.53;71.51
37694;BME280;23531;50.122;8.644;2022-12-07T10:31:49;100558.59;;;7.52;69.52
37694;BME280;23531;50.122;8.644;2022-12-07T10:33:54;100553.44;;;7.36;69.54
37694;BME280;23531;50.122;8.644;2022-12-07T10:35:56;100546.06;;;7.38;69.97
37694;BME280;23531;50.122;8.644;2022-12-07T10:37:59;100559.16;;;7.48;69.61
37694;BME280;23531;50.122;8.644;2022-12-07T10:40:07;100545.59;;;7.49;68.75
37694;BME280;23531;50.122;8.644;2022-12-07T10:42:23;100549.56;;;7.53;69.25
37694;BME280;23531;50.122;8.644;2022-12-07T10:44:26;100548.81;;;7.59;69.08
37694;BME280;23531;50.122;8.644;2022-12-07T10:46:40;100550.09;;;7.63;68.81
37694;BME280;23531;50.122;8.644;2022-12-07T10:48:46;100542.44;;;7.60;67.29
37694;BME280;23531;50.122;8.644;2022-12-07T10:50:54;100532.56;;;7.61;67.55
37694;BME280;23531;50.122;8.644;2022-12-07T10:53:00;100532.31;;;7.56;67.08
37694;BME280;23531;50.122;8.644;2022-12-07T10:55:11;100535.00;;;7.56;66.53